Time;durP1;ratioP1;P1;durP2;ratioP2;P2;SDS_P1;SDS_P2;PMS_P1;PMS_P2;Temp;Humidity;BMP_temperature;BMP_pressure;BME280_temperature;BME280_humidity;BME280_pressure;Samples;Min_cycle;Max_cycle;Signal;HPM_P1;HPM_P2
2022/08/28 00:01:33;;;;;;;17.45;4.50;;;;;;;25.50;43.80;98439.13;5021084;28;20132;-73
2022/08/28 00:03:58;;;;;;;19.55;4.43;;;;;;;25.57;43.89;98455.91;5021322;28;20033;-73
2022/08/28 00:06:24;;;;;;;11.93;4.28;;;;;;;25.52;44.08;98448.53;5037926;28;20024;-73
2022/08/28 00:08:50;;;;;;;16.10;4.60;;;;;;;25.55;44.17;98456.13;5053882;28;20068;-73
2022/08/28 00:11:15;;;;;;;13.43;4.35;;;;;;;25.54;44.19;98451.00;5054367;28;20033;-74
2022/08/28 00:13:41;;;;;;;12.40;4.40;;;;;;;25.53;44.15;98454.72;5037246;28;20087;-74
2022/08/28 00:16:07;;;;;;;17.55;4.13;;;;;;;25.50;44.27;98452.50;5020647;28;20068;-73
2022/08/28 00:18:32;;;;;;;17.02;4.40;;;;;;;25.51;44.33;98454.09;5037101;28;20120;-73
2022/08/28 00:20:58;;;;;;;10.30;3.83;;;;;;;25.50;44.29;98452.50;5020826;28;20029;-73
2022/08/28 00:23:26;;;;;;;11.82;4.60;;;;;;;25.51;44.39;98462.13;5020473;28;20068;-73
2022/08/28 00:25:52;;;;;;;11.55;3.90;;;;;;;25.50;44.45;98455.16;5021573;28;20029;-73
2022/08/28 00:28:17;;;;;;;14.23;4.70;;;;;;;25.52;44.50;98450.41;5037449;28;20486;-74
2022/08/28 00:30:48;;;;;;;16.08;4.07;;;;;;;25.51;44.45;98449.59;5054795;28;20467;-73
2022/08/28 00:33:18;;;;;;;12.40;4.40;;;;;;;25.49;44.52;98454.31;5054155;28;20163;-73
2022/08/28 00:35:44;;;;;;;11.13;4.10;;;;;;;25.49;44.43;98450.84;5047377;28;20111;-73
2022/08/28 00:38:10;;;;;;;10.32;4.50;;;;;;;25.51;44.72;98452.28;5073760;28;20169;-73
2022/08/28 00:40:36;;;;;;;13.02;4.30;;;;;;;25.48;44.66;98451.91;5040547;28;20032;-74
2022/08/28 00:43:02;;;;;;;12.32;4.15;;;;;;;25.50;44.45;98455.97;5073052;28;20450;-73
2022/08/28 00:45:28;;;;;;;14.98;4.43;;;;;;;25.48;45.28;98451.91;5074424;28;20024;-73
2022/08/28 00:47:53;;;;;;;13.65;4.50;;;;;;;25.50;45.10;98453.31;5057334;28;20494;-73
2022/08/28 00:50:21;;;;;;;14.70;4.80;;;;;;;25.48;45.31;98451.91;5056036;28;20040;-74
2022/08/28 00:52:49;;;;;;;13.77;4.43;;;;;;;25.44;45.26;98444.34;5040531;28;20024;-74
2022/08/28 00:55:19;;;;;;;14.07;4.75;;;;;;;25.41;45.77;98443.94;5073456;28;20032;-74
2022/08/28 00:57:50;;;;;;;17.23;4.65;;;;;;;25.45;45.41;98451.28;5056755;28;20039;-73
2022/08/28 01:00:22;;;;;;;10.82;4.47;;;;;;;25.38;45.61;98439.03;5040318;28;20036;-74
2022/08/28 01:02:47;;;;;;;12.40;4.28;;;;;;;25.37;45.66;98446.22;5056722;28;20111;-75
2022/08/28 01:05:14;;;;;;;16.67;4.75;;;;;;;25.34;45.55;98444.00;5056646;28;20116;-73
2022/08/28 01:07:39;;;;;;;17.25;4.55;;;;;;;25.34;45.48;98444.00;5073300;28;20399;-73
2022/08/28 01:10:08;;;;;;;16.52;4.47;;;;;;;25.33;45.33;98444.22;5056373;28;20028;-73
2022/08/28 01:12:33;;;;;;;8.88;4.30;;;;;;;25.36;45.34;98452.59;5056564;28;20522;-73
2022/08/28 01:15:00;;;;;;;10.07;4.43;;;;;;;25.35;45.62;98456.34;5056512;28;20028;-73
2022/08/28 01:17:31;;;;;;;14.60;4.70;;;;;;;25.33;45.32;98445.03;5073034;28;20085;-73
2022/08/28 01:19:59;;;;;;;16.23;4.68;;;;;;;25.33;45.40;98460.25;5072339;28;20032;-74
2022/08/28 01:22:50;;;;;;;14.00;4.60;;;;;;;25.34;45.50;98457.34;5072768;28;20032;-74
2022/08/28 01:25:17;;;;;;;12.75;4.68;;;;;;;25.34;45.35;98461.91;5073015;28;20027;-73
2022/08/28 01:27:43;;;;;;;17.38;4.47;;;;;;;25.31;45.52;98462.34;5055477;28;20040;-73
2022/08/28 01:30:10;;;;;;;18.95;4.85;;;;;;;25.32;45.33;98467.47;5056543;28;20032;-73
2022/08/28 01:32:37;;;;;;;13.15;4.38;;;;;;;25.30;45.36;98466.84;5056218;28;20057;-73
2022/08/28 01:35:05;;;;;;;15.60;4.93;;;;;;;25.25;45.42;98466.66;5056115;28;20024;-73
2022/08/28 01:37:30;;;;;;;16.60;4.60;;;;;;;25.24;45.49;98478.41;5072918;28;20039;-74
2022/08/28 01:39:56;;;;;;;13.38;4.30;;;;;;;25.14;45.58;98467.38;5021461;28;20029;-73
2022/08/28 01:42:22;;;;;;;17.98;4.57;;;;;;;25.16;45.41;98475.97;5019516;28;20112;-73
2022/08/28 01:44:49;;;;;;;15.65;4.35;;;;;;;25.14;45.67;98476.19;5035900;28;20040;-73
2022/08/28 01:47:14;;;;;;;13.50;4.80;;;;;;;25.10;45.62;98472.34;5052908;28;20043;-73
2022/08/28 01:49:40;;;;;;;14.40;4.28;;;;;;;25.09;45.44;98473.34;5035673;28;20033;-73
2022/08/28 01:52:05;;;;;;;14.55;4.63;;;;;;;25.07;45.67;98478.09;5052299;28;20575;-73
2022/08/28 01:54:31;;;;;;;16.75;4.38;;;;;;;25.05;45.68;98472.19;5052277;28;20021;-73
2022/08/28 01:56:56;;;;;;;14.02;4.38;;;;;;;24.99;45.49;98465.03;5052237;28;20036;-73
2022/08/28 01:59:22;;;;;;;10.80;3.92;;;;;;;25.03;45.40;98469.72;5035580;28;20065;-73
2022/08/28 02:01:47;;;;;;;22.42;4.90;;;;;;;25.01;45.48;98470.97;5035988;28;20108;-73
2022/08/28 02:04:13;;;;;;;18.50;4.70;;;;;;;25.02;45.23;98470.75;5034985;28;20036;-73
2022/08/28 02:06:38;;;;;;;13.60;4.60;;;;;;;24.99;45.17;98462.38;5035935;28;20036;-73
2022/08/28 02:09:05;;;;;;;13.32;4.70;;;;;;;24.99;45.28;98460.50;5018551;28;20067;-73
2022/08/28 02:11:31;;;;;;;14.20;4.22;;;;;;;25.05;45.09;98474.84;5052059;28;20028;-73
2022/08/28 02:13:57;;;;;;;15.85;4.10;;;;;;;25.01;45.20;98468.28;5051538;28;20135;-73
2022/08/28 02:16:22;;;;;;;19.95;4.55;;;;;;;25.01;45.30;98471.78;5035241;28;20136;-73
2022/08/28 02:18:48;;;;;;;18.35;4.35;;;;;;;24.95;45.50;98485.19;5035116;28;20064;-73
2022/08/28 02:21:13;;;;;;;9.95;4.25;;;;;;;24.91;45.57;98477.59;5052329;28;20075;-73
2022/08/28 02:23:41;;;;;;;19.00;4.32;;;;;;;24.84;45.71;98470.66;5018299;28;20029;-73
2022/08/28 02:26:07;;;;;;;22.27;4.60;;;;;;;24.83;45.76;98472.53;5018928;28;20025;-73
2022/08/28 02:28:32;;;;;;;25.05;4.60;;;;;;;24.88;45.79;98479.88;5018759;28;20037;-73
2022/08/28 02:30:58;;;;;;;21.15;4.80;;;;;;;24.86;45.57;98481.94;5034689;28;20056;-74
2022/08/28 02:33:24;;;;;;;18.63;4.82;;;;;;;24.87;45.89;98483.59;5034956;28;20115;-74
2022/08/28 02:35:49;;;;;;;11.27;4.22;;;;;;;24.83;45.87;98483.22;5035414;28;20032;-74
2022/08/28 02:38:16;;;;;;;20.40;4.32;;;;;;;24.83;45.64;98479.72;5018454;28;20079;-74
2022/08/28 02:40:41;;;;;;;14.20;4.75;;;;;;;24.79;45.94;98478.50;5051641;28;20025;-74
2022/08/28 02:43:07;;;;;;;21.05;4.65;;;;;;;24.81;45.76;98487.13;5035157;28;20036;-74
2022/08/28 02:45:32;;;;;;;18.80;4.38;;;;;;;24.77;45.89;98493.94;5051355;28;20025;-74
2022/08/28 02:48:00;;;;;;;20.65;4.35;;;;;;;24.66;45.69;98480.22;5034837;28;20040;-74
2022/08/28 02:50:25;;;;;;;11.05;4.20;;;;;;;24.64;46.10;98476.16;5018906;28;20147;-74
2022/08/28 02:52:51;;;;;;;18.08;4.30;;;;;;;24.64;45.77;98487.63;5018067;28;20492;-76
2022/08/28 02:55:17;;;;;;;16.08;4.25;;;;;;;24.66;45.96;98485.56;5017653;28;20075;-73
2022/08/28 02:57:43;;;;;;;18.02;4.57;;;;;;;24.68;45.97;98494.16;5051287;28;20025;-74
2022/08/28 03:00:13;;;;;;;16.02;4.45;;;;;;;24.69;45.86;98495.00;5017936;28;20411;-74
2022/08/28 03:02:39;;;;;;;18.65;4.68;;;;;;;24.69;45.66;98493.13;5034333;28;20033;-74
2022/08/28 03:05:05;;;;;;;19.90;4.53;;;;;;;24.66;45.40;98490.09;5034117;28;20041;-74
2022/08/28 03:07:30;;;;;;;12.10;3.95;;;;;;;24.66;45.68;98493.56;5033853;28;20094;-74
2022/08/28 03:09:56;;;;;;;11.93;3.80;;;;;;;24.64;45.73;98492.97;5051224;28;20476;-74
2022/08/28 03:12:23;;;;;;;17.05;4.20;;;;;;;24.61;45.55;98503.25;5034884;28;20108;-74
2022/08/28 03:14:52;;;;;;;20.40;4.35;;;;;;;24.59;45.76;98503.47;5034561;28;20094;-74
2022/08/28 03:17:17;;;;;;;16.10;3.97;;;;;;;24.59;45.67;98499.97;5050396;28;20037;-75
2022/08/28 03:19:43;;;;;;;20.38;4.28;;;;;;;24.61;45.10;98503.25;5047560;28;20492;-73
2022/08/28 03:22:09;;;;;;;19.83;4.00;;;;;;;24.55;45.54;98491.56;5014781;28;20030;-74
2022/08/28 03:24:36;;;;;;;14.35;4.50;;;;;;;24.56;45.38;98503.88;5014582;28;20119;-73
2022/08/28 03:27:02;;;;;;;16.85;4.30;;;;;;;24.54;45.41;98504.09;5014175;28;20042;-74
2022/08/28 03:29:27;;;;;;;14.18;4.00;;;;;;;24.56;45.53;98504.72;5030926;28;20128;-74
2022/08/28 03:31:53;;;;;;;13.35;3.90;;;;;;;24.54;45.49;98497.91;5014326;28;20057;-73
2022/08/28 03:34:19;;;;;;;18.95;4.40;;;;;;;24.55;45.74;98507.56;5014743;28;20380;-74
2022/08/28 03:36:45;;;;;;;16.58;4.45;;;;;;;24.51;45.76;98501.84;5014768;28;20068;-74
2022/08/28 03:39:10;;;;;;;13.75;4.15;;;;;;;24.58;45.45;98506.34;5047590;28;20053;-74
2022/08/28 03:41:36;;;;;;;19.13;4.47;;;;;;;24.58;45.49;98506.34;4998014;28;20063;-73
2022/08/28 03:44:02;;;;;;;17.10;4.57;;;;;;;24.54;45.50;98509.41;5030145;28;20030;-74
2022/08/28 03:46:31;;;;;;;14.13;4.22;;;;;;;24.48;45.80;98504.94;5030785;28;20035;-74
2022/08/28 03:48:56;;;;;;;16.50;4.38;;;;;;;24.51;45.60;98503.66;5014910;28;20049;-74
2022/08/28 03:51:28;;;;;;;18.58;5.05;;;;;;;24.53;45.51;98498.97;5030611;28;20037;-74
2022/08/28 03:53:54;;;;;;;14.60;4.43;;;;;;;24.64;45.52;98505.50;4999811;28;20038;-73
2022/08/28 03:56:22;;;;;;;15.52;4.43;;;;;;;24.75;45.38;98512.84;5030508;28;20473;-75
2022/08/28 03:58:50;;;;;;;17.90;4.85;;;;;;;24.89;44.87;98521.56;5014031;28;20040;-74
2022/08/28 04:01:16;;;;;;;16.35;4.75;;;;;;;25.00;45.21;98515.53;5030760;28;20033;-74
2022/08/28 04:03:41;;;;;;;14.90;4.75;;;;;;;25.10;44.81;98515.88;5030390;28;20127;-74
2022/08/28 04:06:06;;;;;;;18.27;3.88;;;;;;;25.23;44.77;98514.13;5014451;28;20026;-74
2022/08/28 04:08:32;;;;;;;15.00;4.28;;;;;;;25.47;44.16;98515.19;5030926;28;20045;-74
2022/08/28 04:10:59;;;;;;;15.55;4.15;;;;;;;25.78;43.38;98514.28;5014179;28;20053;-75
2022/08/28 04:13:25;;;;;;;16.43;4.30;;;;;;;26.11;42.86;98518.50;5014087;28;20510;-74
2022/08/28 04:16:06;;;;;;;13.93;4.40;;;;;;;26.47;42.34;98518.69;5030396;28;20108;-75
2022/08/28 04:18:32;;;;;;;22.02;4.47;;;;;;;26.87;41.36;98523.53;5016203;28;20030;-75
2022/08/28 04:21:02;;;;;;;17.02;4.78;;;;;;;27.22;40.42;98525.50;5017965;28;20022;-74
2022/08/28 04:23:28;;;;;;;17.33;3.95;;;;;;;27.70;39.06;98527.16;5017530;28;20025;-74
2022/08/28 04:25:54;;;;;;;25.20;4.40;;;;;;;28.13;38.66;98522.47;5034162;28;20087;-73
2022/08/28 04:28:21;;;;;;;23.15;4.25;;;;;;;28.64;37.68;98518.16;5017629;28;20067;-75
2022/08/28 04:30:49;;;;;;;13.70;3.83;;;;;;;29.03;36.27;98522.88;5045843;28;20480;-75
2022/08/28 04:33:15;;;;;;;24.60;4.55;;;;;;;29.44;35.72;98522.75;5037841;28;20103;-76
2022/08/28 04:35:40;;;;;;;27.08;4.38;;;;;;;29.88;35.08;98522.88;5037410;28;20128;-74
2022/08/28 04:38:06;;;;;;;17.83;4.70;;;;;;;30.39;34.24;98528.13;5036868;28;20041;-75
2022/08/28 04:40:32;;;;;;;28.25;3.97;;;;;;;30.94;33.22;98528.97;5055037;28;20473;-75
2022/08/28 04:42:57;;;;;;;44.50;4.45;;;;;;;31.45;32.59;98529.41;5037264;28;20096;-73
2022/08/28 04:45:24;;;;;;;33.72;4.53;;;;;;;32.07;32.10;98532.50;5057728;28;20029;-78
2022/08/28 04:47:49;;;;;;;27.40;4.38;;;;;;;32.57;30.92;98525.69;5053268;28;20036;-76
2022/08/28 04:50:15;;;;;;;21.85;4.18;;;;;;;33.37;29.93;98529.88;5021690;28;20423;-79
2022/08/28 04:52:42;;;;;;;18.67;4.03;;;;;;;34.03;29.12;98530.84;5021284;28;20061;-85
2022/08/28 04:55:09;;;;;;;20.93;3.40;;;;;;;34.61;28.26;98524.91;5054377;28;20025;-81
2022/08/28 04:57:34;;;;;;;18.58;3.70;;;;;;;35.20;27.55;98530.50;5037708;28;20035;-77
2022/08/28 05:00:00;;;;;;;20.77;4.25;;;;;;;35.81;26.57;98532.69;5055675;28;20033;-86
2022/08/28 05:02:25;;;;;;;20.25;3.65;;;;;;;36.38;25.99;98534.75;5055514;28;20159;-79
2022/08/28 05:04:51;;;;;;;23.98;4.00;;;;;;;36.92;24.89;98530.72;5055065;28;20174;-86
2022/08/28 05:07:16;;;;;;;36.70;3.75;;;;;;;37.42;24.48;98529.41;5037842;28;20037;-79
2022/08/28 05:09:42;;;;;;;25.10;3.97;;;;;;;37.79;24.14;98530.41;5052508;28;20064;-78
2022/08/28 05:12:07;;;;;;;21.90;3.70;;;;;;;38.21;23.93;98525.78;5051846;28;20488;-79
2022/08/28 05:14:34;;;;;;;20.25;3.58;;;;;;;38.54;23.67;98528.34;5018764;28;20443;-82
2022/08/28 05:16:59;;;;;;;28.57;4.37;;;;;;;38.78;23.07;98519.06;5052684;28;20091;-79
2022/08/28 05:19:25;;;;;;;17.20;4.10;;;;;;;39.19;22.60;98526.28;5036232;28;20299;-84
2022/08/28 05:21:51;;;;;;;21.20;4.03;;;;;;;39.45;21.94;98519.06;5035697;28;20029;-85
2022/08/28 05:24:18;;;;;;;16.92;3.63;;;;;;;39.79;22.12;98533.25;5037317;28;20033;-91
2022/08/28 05:26:45;;;;;;;17.42;3.85;;;;;;;40.08;21.49;98523.72;5053903;28;20025;-86
2022/08/28 05:29:11;;;;;;;31.38;4.05;;;;;;;40.39;21.59;98529.06;5052999;28;20116;-81
2022/08/28 05:31:37;;;;;;;23.02;3.97;;;;;;;40.61;21.50;98532.81;5034274;28;20052;-82
2022/08/28 05:34:03;;;;;;;19.42;3.63;;;;;;;40.61;20.79;98530.06;5035390;28;20086;-83
2022/08/28 05:36:31;;;;;;;15.13;3.42;;;;;;;40.89;20.19;98538.00;5019474;28;20040;-84
2022/08/28 05:38:56;;;;;;;20.67;3.97;;;;;;;41.11;20.33;98537.78;5047279;28;20105;-76
2022/08/28 05:41:24;;;;;;;26.75;4.20;;;;;;;41.32;19.71;98540.66;5051607;28;20472;-76
2022/08/28 05:43:49;;;;;;;22.80;3.65;;;;;;;41.51;19.36;98544.97;5034964;28;20025;-76
2022/08/28 05:46:16;;;;;;;20.80;3.40;;;;;;;41.66;19.15;98549.13;5034548;28;20105;-76
2022/08/28 05:48:41;;;;;;;95.20;18.70;;;;;;;41.84;20.40;98552.63;5024028;28;20455;-79
2022/08/28 05:51:11;;;;;;;47.72;10.07;;;;;;;42.12;20.07;98551.00;5017604;28;20033;-89
2022/08/28 05:53:40;;;;;;;37.28;9.02;;;;;;;42.43;19.88;98560.03;5032624;28;20048;-75
2022/08/28 05:56:09;;;;;;;37.13;7.75;;;;;;;42.62;19.69;98554.94;5053129;28;20021;-77
2022/08/28 05:58:36;;;;;;;39.45;6.00;;;;;;;42.84;18.54;98551.06;5017922;28;20021;-77
2022/08/28 06:01:12;;;;;;;35.85;6.53;;;;;;;43.08;18.83;98559.72;5017995;28;20083;-76
2022/08/28 06:03:38;;;;;;;25.27;5.78;;;;;;;43.24;19.13;98554.41;5048132;28;20033;-77
2022/08/28 06:06:04;;;;;;;24.50;5.13;;;;;;;43.29;19.00;98555.00;5032797;28;20112;-77
2022/08/28 06:08:30;;;;;;;28.83;5.00;;;;;;;43.46;18.91;98562.28;5034513;28;20033;-75
2022/08/28 06:10:56;;;;;;;26.85;4.90;;;;;;;43.55;18.38;98559.44;5015041;28;20044;-75
2022/08/28 06:13:22;;;;;;;24.53;4.67;;;;;;;43.65;18.60;98563.69;5034273;28;20044;-75
2022/08/28 06:15:47;;;;;;;20.03;4.90;;;;;;;43.69;18.34;98559.91;5034135;28;20037;-77
2022/08/28 06:18:13;;;;;;;19.13;4.63;;;;;;;43.80;17.83;98565.00;5033910;28;20033;-77
2022/08/28 06:20:41;;;;;;;25.17;4.60;;;;;;;43.88;18.06;98561.31;5034027;28;20017;-76
2022/08/28 06:23:08;;;;;;;23.80;4.82;;;;;;;43.91;18.05;98566.13;5034748;28;20036;-77
2022/08/28 06:25:38;;;;;;;17.83;4.05;;;;;;;44.01;17.96;98567.63;5033648;28;20543;-76
2022/08/28 06:28:04;;;;;;;23.95;4.15;;;;;;;44.06;17.71;98565.47;5033767;28;20033;-76
2022/08/28 06:30:29;;;;;;;18.90;4.10;;;;;;;44.11;17.74;98567.16;5033822;28;20095;-77
2022/08/28 06:32:55;;;;;;;22.43;4.37;;;;;;;44.20;17.79;98567.06;5033398;28;20283;-78
2022/08/28 06:35:20;;;;;;;18.57;3.93;;;;;;;44.26;17.32;98569.22;5033224;28;20037;-73
2022/08/28 06:37:46;;;;;;;21.53;4.13;;;;;;;44.31;17.24;98567.41;5017112;28;20492;-75
2022/08/28 06:40:12;;;;;;;20.57;4.13;;;;;;;44.36;17.66;98562.47;5050499;28;20032;-75
2022/08/28 06:42:37;;;;;;;28.05;4.40;;;;;;;44.42;16.82;98566.59;5032773;28;20512;-75
2022/08/28 06:45:03;;;;;;;19.40;4.20;;;;;;;44.45;16.80;98570.59;5033519;28;20108;-76
2022/08/28 06:47:29;;;;;;;17.90;4.23;;;;;;;44.46;17.26;98569.44;5032534;28;20522;-76
2022/08/28 06:49:54;;;;;;;24.97;4.60;;;;;;;44.49;16.72;98567.94;5051224;28;20032;-76
2022/08/28 06:52:20;;;;;;;19.97;4.00;;;;;;;44.51;16.96;98562.91;5033593;28;20472;-76
2022/08/28 06:54:45;;;;;;;26.40;4.23;;;;;;;44.53;16.70;98566.88;5033448;28;20021;-75
2022/08/28 06:57:11;;;;;;;15.83;3.90;;;;;;;44.58;16.66;98572.16;5033343;28;20053;-76
2022/08/28 06:59:36;;;;;;;13.80;4.07;;;;;;;44.52;17.01;98564.47;5033206;28;20029;-76
2022/08/28 07:02:04;;;;;;;17.07;4.60;;;;;;;44.58;16.78;98574.91;5016675;28;20106;-74
2022/08/28 07:04:29;;;;;;;21.02;4.10;;;;;;;44.60;17.16;98571.84;5050125;28;20491;-76
2022/08/28 07:06:55;;;;;;;15.10;4.00;;;;;;;44.60;17.18;98567.13;5050872;28;20024;-76
2022/08/28 07:09:21;;;;;;;20.93;4.33;;;;;;;44.64;16.75;98564.47;5016874;28;20025;-74
2022/08/28 07:11:46;;;;;;;17.17;3.90;;;;;;;44.67;16.52;98560.25;5033133;28;20040;-76
2022/08/28 07:14:12;;;;;;;17.07;3.93;;;;;;;44.67;16.92;98560.25;5050026;28;20090;-77
2022/08/28 07:16:37;;;;;;;16.73;3.83;;;;;;;44.74;16.12;98557.69;5034318;28;20029;-75
2022/08/28 07:19:06;;;;;;;16.73;4.03;;;;;;;44.82;16.36;98566.94;5051303;28;20025;-75
2022/08/28 07:21:35;;;;;;;21.15;3.85;;;;;;;44.82;16.60;98564.19;5019324;28;20021;-77
2022/08/28 07:24:02;;;;;;;20.23;4.00;;;;;;;44.86;16.35;98573.38;5018083;28;20480;-76
2022/08/28 07:26:28;;;;;;;16.73;4.10;;;;;;;44.83;16.47;98560.31;5034601;28;20021;-75
2022/08/28 07:28:53;;;;;;;32.00;3.97;;;;;;;44.90;16.16;98568.75;5034430;28;20033;-78
2022/08/28 07:31:21;;;;;;;18.70;4.27;;;;;;;44.90;16.04;98563.25;5017642;28;20547;-75
2022/08/28 07:33:47;;;;;;;18.52;3.60;;;;;;;44.91;15.85;98562.09;5050980;28;20037;-75
2022/08/28 07:36:14;;;;;;;26.57;4.03;;;;;;;44.94;16.10;98562.19;5051022;28;20083;-76
2022/08/28 07:38:39;;;;;;;16.65;4.07;;;;;;;44.98;16.44;98565.88;5034387;28;20506;-76
2022/08/28 07:41:32;;;;;;;24.80;4.33;;;;;;;44.93;16.14;98568.03;5033850;28;20049;-75
2022/08/28 07:46:42;;;;;;;26.88;4.32;;;;;;;45.02;15.65;98559.69;5050934;28;20036;-75
2022/08/28 07:49:07;;;;;;;19.40;3.50;;;;;;;45.04;15.52;98560.13;5050730;28;20029;-74
2022/08/28 07:51:33;;;;;;;19.80;3.43;;;;;;;45.06;16.28;98558.63;5033459;28;20033;-75
2022/08/28 07:53:58;;;;;;;25.07;4.57;;;;;;;45.08;16.24;98558.28;5053498;28;20507;-76
2022/08/28 07:56:26;;;;;;;28.00;4.20;;;;;;;45.14;15.95;98568.69;5038380;28;20487;-75
2022/08/28 07:58:51;;;;;;;16.35;4.15;;;;;;;45.18;15.85;98560.50;5037988;28;20106;-76
2022/08/28 08:01:18;;;;;;;23.90;4.37;;;;;;;45.20;15.36;98563.72;5055000;28;20033;-75
2022/08/28 08:03:43;;;;;;;28.10;4.13;;;;;;;45.24;15.68;98561.84;5054513;28;20031;-77
2022/08/28 08:06:09;;;;;;;18.27;4.23;;;;;;;45.21;15.95;98550.75;5038064;28;20021;-76
2022/08/28 08:08:35;;;;;;;20.53;4.13;;;;;;;45.24;15.52;98559.09;5021420;28;20033;-77
2022/08/28 08:11:00;;;;;;;19.47;3.90;;;;;;;45.12;15.35;98561.91;5021471;28;20033;-75
2022/08/28 08:13:26;;;;;;;19.77;4.00;;;;;;;45.15;15.87;98558.44;5055699;28;20060;-76
2022/08/28 08:15:52;;;;;;;21.00;4.20;;;;;;;45.08;15.15;98555.53;5054401;28;20128;-75
2022/08/28 08:18:17;;;;;;;29.30;4.80;;;;;;;45.14;15.17;98563.16;5054116;28;20397;-75
2022/08/28 08:20:43;;;;;;;17.47;3.20;;;;;;;44.98;15.22;98554.88;5055605;28;20116;-75
2022/08/28 08:23:08;;;;;;;19.53;3.70;;;;;;;45.06;15.56;98550.38;5021202;28;20032;-74
2022/08/28 08:25:34;;;;;;;15.33;3.80;;;;;;;45.13;15.66;98556.03;5053843;28;20021;-76
2022/08/28 08:28:02;;;;;;;20.03;3.73;;;;;;;45.20;15.71;98558.22;5054082;28;20052;-76
2022/08/28 08:30:27;;;;;;;23.70;3.65;;;;;;;45.26;15.95;98553.22;5037682;28;20377;-77
2022/08/28 08:32:53;;;;;;;18.77;3.90;;;;;;;45.28;15.54;98557.25;5037478;28;20091;-76
2022/08/28 08:35:19;;;;;;;16.00;3.57;;;;;;;45.28;15.88;98557.25;5054154;28;20029;-76
2022/08/28 08:37:44;;;;;;;15.00;3.70;;;;;;;45.10;15.07;98553.19;5036862;28;20450;-76
2022/08/28 08:40:14;;;;;;;20.07;3.70;;;;;;;45.11;15.79;98555.59;5055765;28;20036;-76
2022/08/28 08:42:42;;;;;;;17.40;3.70;;;;;;;45.11;15.61;98557.56;5037773;28;20035;-76
2022/08/28 08:45:09;;;;;;;16.95;3.33;;;;;;;45.11;15.88;98557.56;5037595;28;20021;-75
2022/08/28 08:47:41;;;;;;;;;;;;;;;45.03;15.19;98556.56;5037812;28;20087;-75
2022/08/28 08:50:09;;;;;;;20.65;3.80;;;;;;;44.96;15.30;98556.34;5055155;28;20368;-75
2022/08/28 08:52:43;;;;;;;16.50;3.20;;;;;;;44.93;15.92;98546.84;5037418;28;20384;-76
2022/08/28 08:55:31;;;;;;;16.10;3.50;;;;;;;44.90;15.47;98550.28;5054734;28;20037;-75
2022/08/28 08:58:05;;;;;;;16.10;3.63;;;;;;;44.90;15.21;98547.53;5036525;28;20047;-77
2022/08/28 09:00:33;;;;;;;27.45;3.67;;;;;;;44.81;15.92;98549.63;5053658;28;20147;-75
2022/08/28 09:03:48;;;;;;;19.67;3.40;;;;;;;44.67;15.96;98543.72;5053514;28;20036;-76
2022/08/28 09:06:27;;;;;;;19.50;3.65;;;;;;;44.62;15.72;98542.03;4959366;28;20089;-75
2022/08/28 09:08:57;;;;;;;17.73;3.30;;;;;;;44.53;15.99;98539.38;4978413;28;20030;-76
2022/08/28 09:11:28;;;;;;;14.45;3.58;;;;;;;44.47;15.64;98542.72;4944881;28;20481;-75
2022/08/28 09:13:59;;;;;;;19.52;4.00;;;;;;;44.36;15.87;98534.13;4992905;28;20537;-74
2022/08/28 09:16:31;;;;;;;19.35;3.30;;;;;;;44.11;16.01;98536.09;4976568;28;20129;-76
2022/08/28 09:18:57;;;;;;;15.20;3.50;;;;;;;44.06;15.80;98539.88;4944927;28;20034;-74
2022/08/28 09:21:24;;;;;;;16.47;3.80;;;;;;;43.94;15.82;98537.16;4960332;28;20038;-75
2022/08/28 09:23:52;;;;;;;13.52;3.90;;;;;;;43.87;15.66;98534.97;4976310;28;20457;-75
2022/08/28 09:26:21;;;;;;;16.83;4.10;;;;;;;43.81;15.48;98523.41;4944443;28;20506;-76
2022/08/28 09:28:49;;;;;;;19.10;4.22;;;;;;;43.75;15.62;98533.00;4944525;28;20042;-76
2022/08/28 09:31:16;;;;;;;10.75;4.13;;;;;;;43.61;15.62;98530.59;4944652;28;20058;-76
2022/08/28 09:33:42;;;;;;;;;;;;;;;43.52;15.65;98529.88;4976958;28;20461;-76
2022/08/28 09:36:30;;;;;;;12.27;4.23;;;;;;;43.32;15.70;98529.59;5006738;28;19919;-75
2022/08/28 09:39:06;;;;;;;11.23;4.07;;;;;;;43.23;15.78;98528.09;5036445;28;20056;-74
2022/08/28 09:44:19;;;;;;;18.27;3.95;;;;;;;43.00;15.99;98525.72;5053296;28;20040;-76
2022/08/28 09:46:47;;;;;;;19.57;3.83;;;;;;;42.90;16.04;98518.69;5019578;28;20419;-75
2022/08/28 09:49:13;;;;;;;14.40;3.70;;;;;;;42.81;15.72;98523.47;5019328;28;20047;-76
2022/08/28 09:51:38;;;;;;;10.77;3.60;;;;;;;42.69;15.95;98516.00;5052583;28;20057;-75
2022/08/28 09:54:15;;;;;;;14.47;4.00;;;;;;;42.55;16.01;98513.50;5035957;28;20033;-76
2022/08/28 09:56:43;;;;;;;15.02;3.67;;;;;;;42.45;16.17;98508.41;5035520;28;20061;-74
2022/08/28 09:59:16;;;;;;;13.82;4.30;;;;;;;42.32;15.91;98510.28;5019805;28;20072;-76
2022/08/28 10:01:47;;;;;;;17.27;3.65;;;;;;;42.07;15.52;98521.06;5035478;28;20128;-75
2022/08/28 10:04:16;;;;;;;14.85;4.10;;;;;;;41.91;16.06;98509.88;5053841;28;20025;-74
2022/08/28 10:07:07;;;;;;;13.27;3.38;;;;;;;41.66;16.11;98513.50;5052316;28;20028;-75
2022/08/28 10:09:42;;;;;;;17.05;3.75;;;;;;;41.61;15.89;98508.19;4976032;28;20552;-77
2022/08/28 10:12:35;;;;;;;17.58;4.43;;;;;;;41.46;16.14;98507.59;4960731;28;20580;-76
2022/08/28 10:15:12;;;;;;;19.17;3.90;;;;;;;41.38;16.40;98505.72;4960809;28;20088;-75
2022/08/28 10:18:02;;;;;;;17.45;3.67;;;;;;;41.15;16.54;98502.34;4991763;28;20095;-75
2022/08/28 10:20:37;;;;;;;15.75;3.83;;;;;;;41.07;16.40;98492.22;4992243;28;20043;-77
2022/08/28 10:23:26;;;;;;;18.45;3.80;;;;;;;40.99;16.75;98497.41;4992045;28;20027;-75
2022/08/28 10:26:06;;;;;;;18.40;3.53;;;;;;;40.92;16.83;98491.63;4991756;28;20053;-77
2022/08/28 10:28:55;;;;;;;20.83;4.20;;;;;;;40.70;16.71;98487.91;4960808;28;20189;-75
2022/08/28 10:31:23;;;;;;;15.82;3.38;;;;;;;40.55;17.04;98491.16;4975399;28;20411;-75
2022/08/28 10:34:12;;;;;;;12.38;3.70;;;;;;;40.33;17.02;98479.19;4991564;28;20038;-76
2022/08/28 10:36:38;;;;;;;13.18;3.40;;;;;;;40.28;16.67;98484.81;4960845;28;20038;-79
2022/08/28 10:39:19;;;;;;;18.88;3.65;;;;;;;40.14;16.72;98482.22;4943019;28;20441;-78
2022/08/28 10:41:48;;;;;;;15.18;3.47;;;;;;;40.03;16.67;98478.19;4959236;28;20034;-78
2022/08/28 10:44:19;;;;;;;15.32;3.17;;;;;;;39.94;16.80;98466.41;4959501;28;20039;-79
2022/08/28 10:46:52;;;;;;;15.57;3.90;;;;;;;39.79;16.67;98476.66;5001424;28;20480;-75
2022/08/28 10:49:29;;;;;;;18.40;3.20;;;;;;;39.55;16.87;98481.72;5035305;28;20036;-75
2022/08/28 10:52:14;;;;;;;13.73;3.15;;;;;;;39.30;16.79;98475.81;5034910;28;20029;-75
2022/08/28 10:54:45;;;;;;;18.92;3.63;;;;;;;39.13;16.89;98479.25;5050707;28;20032;-76
2022/08/28 10:57:47;;;;;;;17.25;3.10;;;;;;;39.06;17.25;98476.09;5051640;28;20028;-75
2022/08/28 11:00:15;;;;;;;16.05;3.33;;;;;;;38.88;16.98;98475.19;5050971;28;20032;-76
2022/08/28 11:02:42;;;;;;;;;;;;;;;38.82;17.51;98462.81;5035155;28;20037;-75
2022/08/28 11:05:09;;;;;;;11.95;3.20;;;;;;;38.80;18.01;98465.84;5034573;28;19913;-75
2022/08/28 11:07:37;;;;;;;19.95;3.33;;;;;;;38.79;18.38;98466.16;5034713;28;20043;-76
2022/08/28 11:10:28;;;;;;;17.10;3.63;;;;;;;38.78;18.00;98468.06;5018426;28;20443;-76
2022/08/28 11:12:53;;;;;;;20.50;3.35;;;;;;;38.74;17.89;98461.63;5051530;28;20368;-75
2022/08/28 11:15:28;;;;;;;18.17;3.30;;;;;;;38.61;18.07;98465.19;5034379;28;20033;-76
2022/08/28 11:18:17;;;;;;;18.80;3.25;;;;;;;38.56;18.36;98460.66;5051049;28;20404;-75
2022/08/28 11:20:56;;;;;;;19.00;3.22;;;;;;;38.54;18.73;98458.25;4990748;28;20038;-76
2022/08/28 11:23:34;;;;;;;16.23;3.28;;;;;;;38.51;18.49;98468.97;4990922;28;20042;-76
2022/08/28 11:26:02;;;;;;;19.92;3.30;;;;;;;38.45;19.13;98462.03;4974633;28;20108;-75
2022/08/28 11:28:34;;;;;;;14.90;3.13;;;;;;;38.39;19.52;98465.97;4957965;28;20031;-74
2022/08/28 11:30:59;;;;;;;14.30;3.22;;;;;;;38.33;19.24;98447.03;4990013;28;20087;-75
2022/08/28 11:33:51;;;;;;;15.35;2.95;;;;;;;38.29;19.31;98459.63;4990615;28;20064;-76
2022/08/28 11:36:20;;;;;;;16.42;3.55;;;;;;;38.24;19.61;98458.94;4974498;28;20057;-76
2022/08/28 11:38:54;;;;;;;18.33;3.67;;;;;;;38.19;19.61;98455.22;4990862;28;20450;-75